createdAt,value
2017-07-11T00:00:29.064Z,19.11
2017-07-11T00:02:57.418Z,19.17
2017-07-11T00:05:26.266Z,19.10
2017-07-11T00:07:54.617Z,19.24
2017-07-11T00:10:22.981Z,19.19
2017-07-11T00:12:51.787Z,19.26
2017-07-11T00:15:20.139Z,19.19
2017-07-11T00:17:48.490Z,19.23
2017-07-11T00:20:17.171Z,19.20
2017-07-11T00:22:45.509Z,19.20
2017-07-11T00:25:13.854Z,19.24
2017-07-11T00:27:42.518Z,19.20
2017-07-11T00:30:10.881Z,19.28
2017-07-11T00:32:39.238Z,18.96
2017-07-11T00:35:08.098Z,18.88
2017-07-11T00:37:36.432Z,18.92
2017-07-11T00:40:04.780Z,18.91
2017-07-11T00:42:33.486Z,18.92
2017-07-11T00:45:01.836Z,18.99
2017-07-11T00:47:30.193Z,19.10
2017-07-11T00:49:59.149Z,19.09
2017-07-11T00:52:27.528Z,19.07
2017-07-11T00:54:55.881Z,19.03
2017-07-11T00:57:25.008Z,19.15
2017-07-11T00:59:53.348Z,18.98
2017-07-11T01:02:21.709Z,18.50
2017-07-11T01:04:50.589Z,18.62
2017-07-11T01:07:18.952Z,18.53
2017-07-11T01:09:47.306Z,18.79
2017-07-11T01:12:16.091Z,18.67
2017-07-11T01:14:44.483Z,18.92
2017-07-11T01:17:12.837Z,19.01
2017-07-11T01:19:41.629Z,18.80
2017-07-11T01:22:10.757Z,18.68
2017-07-11T01:24:39.109Z,18.66
2017-07-11T01:27:07.796Z,18.70
2017-07-11T01:29:36.181Z,18.86
2017-07-11T01:32:05.315Z,18.38
2017-07-11T01:34:34.308Z,18.25
2017-07-11T01:37:02.652Z,18.12
2017-07-11T01:39:31.009Z,18.09
2017-07-11T01:41:59.694Z,18.00
2017-07-11T01:44:28.093Z,17.95
2017-07-11T01:46:56.454Z,18.04
2017-07-11T01:49:25.065Z,18.32
2017-07-11T01:51:53.516Z,18.49
2017-07-11T01:54:21.895Z,18.41
2017-07-11T01:56:50.846Z,18.22
2017-07-11T01:59:19.204Z,18.30
2017-07-11T02:01:47.557Z,18.35
2017-07-11T02:04:16.470Z,18.44
2017-07-11T02:06:44.810Z,17.90
2017-07-11T02:09:13.170Z,17.83
2017-07-11T02:11:41.773Z,17.65
2017-07-11T02:14:10.153Z,17.67
2017-07-11T02:16:38.497Z,17.93
2017-07-11T02:19:07.195Z,18.12
2017-07-11T02:21:35.546Z,18.36
2017-07-11T02:24:03.885Z,18.51
2017-07-11T02:26:33.129Z,18.56
2017-07-11T02:29:01.486Z,18.28
2017-07-11T02:31:29.848Z,18.56
2017-07-11T02:33:59.469Z,18.75
2017-07-11T02:36:27.833Z,18.58
2017-07-11T02:38:56.964Z,18.59
2017-07-11T02:41:25.840Z,18.59
2017-07-11T02:43:54.975Z,18.64
2017-07-11T02:46:23.339Z,18.55
2017-07-11T02:48:52.217Z,18.51
2017-07-11T02:51:20.566Z,18.67
2017-07-11T02:53:48.915Z,18.63
2017-07-11T02:56:17.595Z,18.39
2017-07-11T02:58:45.934Z,18.59
2017-07-11T03:01:14.301Z,18.69
2017-07-11T03:03:43.704Z,18.62
2017-07-11T03:06:12.052Z,18.47
2017-07-11T03:08:40.373Z,18.81
2017-07-11T03:11:09.226Z,18.67
2017-07-11T03:13:37.573Z,18.22
2017-07-11T03:16:05.957Z,18.21
2017-07-11T03:18:34.813Z,18.37
2017-07-11T03:21:03.179Z,18.51
2017-07-11T03:23:32.301Z,18.52
2017-07-11T03:26:00.939Z,18.28
2017-07-11T03:28:29.322Z,18.44
2017-07-11T03:30:57.668Z,18.54
2017-07-11T03:33:26.692Z,18.60
2017-07-11T03:35:55.045Z,18.55
2017-07-11T03:38:23.394Z,18.59
2017-07-11T03:40:52.169Z,18.66
2017-07-11T03:43:20.538Z,18.81
2017-07-11T03:45:49.652Z,18.92
2017-07-11T03:48:18.290Z,19.02
2017-07-11T03:50:46.630Z,18.97
2017-07-11T03:53:14.969Z,18.96
2017-07-11T03:55:43.848Z,19.05
2017-07-11T03:58:12.207Z,19.15
2017-07-11T04:00:40.546Z,19.24
2017-07-11T04:03:09.244Z,19.29
2017-07-11T04:05:37.585Z,19.19
2017-07-11T04:08:05.918Z,19.14
2017-07-11T04:10:34.600Z,19.12
2017-07-11T04:13:02.949Z,19.19
2017-07-11T04:15:31.306Z,19.31
2017-07-11T04:18:00.421Z,19.22
2017-07-11T04:20:28.753Z,19.17
2017-07-11T04:22:57.121Z,19.15
2017-07-11T04:25:25.871Z,19.26
2017-07-11T04:27:54.213Z,19.09
2017-07-11T04:30:22.572Z,19.05
2017-07-11T04:32:51.282Z,19.11
2017-07-11T04:35:19.636Z,19.26
2017-07-11T04:37:47.990Z,18.99
2017-07-11T04:40:16.967Z,19.13
2017-07-11T04:42:45.318Z,19.19
2017-07-11T04:45:13.687Z,19.08
2017-07-11T04:47:42.304Z,18.94
2017-07-11T04:50:10.675Z,19.15
2017-07-11T04:52:38.993Z,19.28
2017-07-11T04:55:07.653Z,19.12
2017-07-11T04:57:36.055Z,19.20
2017-07-11T05:00:04.416Z,19.19
2017-07-11T05:02:33.302Z,19.05
2017-07-11T05:05:01.633Z,19.10
2017-07-11T05:07:29.955Z,19.25
2017-07-11T05:09:58.624Z,19.46
2017-07-11T05:12:27.756Z,19.74
2017-07-11T05:14:56.155Z,19.91
2017-07-11T05:17:25.007Z,19.82
2017-07-11T05:19:53.361Z,20.04
2017-07-11T05:22:21.727Z,20.10
2017-07-11T05:24:50.860Z,20.15
2017-07-11T05:27:19.260Z,20.09
2017-07-11T05:29:47.613Z,19.94
2017-07-11T05:32:16.276Z,19.80
2017-07-11T05:34:44.604Z,19.58
2017-07-11T05:37:12.933Z,19.58
2017-07-11T05:39:41.565Z,19.72
2017-07-11T05:42:09.915Z,19.76
2017-07-11T05:44:38.264Z,19.48
2017-07-11T05:47:07.012Z,19.57
2017-07-11T05:49:35.385Z,19.78
2017-07-11T05:52:03.738Z,19.81
2017-07-11T05:54:32.382Z,19.67
2017-07-11T05:57:00.734Z,19.63
2017-07-11T05:59:29.091Z,19.68
2017-07-11T06:01:58.087Z,19.80
2017-07-11T06:04:26.448Z,19.90
2017-07-11T06:06:54.851Z,19.94
2017-07-11T06:09:24.090Z,19.95
2017-07-11T06:11:52.439Z,20.17
2017-07-11T06:14:20.780Z,20.04
2017-07-11T06:16:49.432Z,20.16
2017-07-11T06:19:17.780Z,20.12
2017-07-11T06:21:46.158Z,20.02
2017-07-11T06:24:15.017Z,20.44
2017-07-11T06:26:43.377Z,20.60
2017-07-11T06:29:12.495Z,20.70
2017-07-11T06:31:41.501Z,20.72
2017-07-11T06:34:09.863Z,20.41
2017-07-11T06:36:38.202Z,20.18
2017-07-11T06:39:06.965Z,20.37
2017-07-11T06:41:35.307Z,20.64
2017-07-11T06:44:03.647Z,20.60
2017-07-11T06:46:32.285Z,20.63
2017-07-11T06:49:01.386Z,20.51
2017-07-11T06:51:30.486Z,20.41
2017-07-11T06:54:00.224Z,20.43
2017-07-11T06:56:28.566Z,20.43
2017-07-11T06:58:56.908Z,20.33
2017-07-11T07:01:26.340Z,20.28
2017-07-11T07:03:54.702Z,20.12
2017-07-11T07:06:23.105Z,20.23
2017-07-11T07:08:51.718Z,20.25
2017-07-11T07:11:20.062Z,20.33
2017-07-11T07:13:48.440Z,20.27
2017-07-11T07:16:17.351Z,20.40
2017-07-11T07:18:46.459Z,20.49
2017-07-11T07:21:14.790Z,20.54
2017-07-11T07:23:43.405Z,20.54
2017-07-11T07:26:11.758Z,20.69
2017-07-11T07:28:40.107Z,21.05
2017-07-11T07:31:08.774Z,21.22
2017-07-11T07:33:37.105Z,21.31
2017-07-11T07:36:05.479Z,21.24
2017-07-11T07:38:34.274Z,21.26
2017-07-11T07:41:02.610Z,21.06
2017-07-11T07:43:30.983Z,21.02
2017-07-11T07:45:59.859Z,21.11
2017-07-11T07:48:28.191Z,21.17
2017-07-11T07:50:56.546Z,21.32
2017-07-11T07:53:25.186Z,21.40
2017-07-11T07:55:54.310Z,21.84
2017-07-11T07:58:22.655Z,21.64
2017-07-11T08:00:51.553Z,21.88
2017-07-11T08:03:19.935Z,22.17
2017-07-11T08:05:48.294Z,22.00
2017-07-11T08:08:16.943Z,22.28
2017-07-11T08:10:45.273Z,22.31
2017-07-11T08:13:13.627Z,21.87
2017-07-11T08:15:42.258Z,22.04
2017-07-11T08:18:10.635Z,22.38
2017-07-11T08:20:38.964Z,22.30
2017-07-11T08:23:07.874Z,22.98
2017-07-11T08:25:36.230Z,23.09
2017-07-11T08:28:04.561Z,23.37
2017-07-11T08:30:33.347Z,24.03
2017-07-11T08:33:01.704Z,24.27
2017-07-11T08:35:30.100Z,23.55
2017-07-11T08:37:58.802Z,23.01
2017-07-11T08:40:27.141Z,23.04
2017-07-11T08:42:55.495Z,23.08
2017-07-11T08:45:24.185Z,23.54
2017-07-11T08:47:52.537Z,24.29
2017-07-11T08:50:20.905Z,24.58
2017-07-11T08:52:49.527Z,25.26
2017-07-11T08:55:17.890Z,26.02
2017-07-11T08:57:46.267Z,26.12
2017-07-11T09:00:14.921Z,25.93
2017-07-11T09:02:43.262Z,26.57
2017-07-11T09:05:11.710Z,26.77
2017-07-11T09:07:40.476Z,26.85
2017-07-11T09:10:08.844Z,26.38
2017-07-11T09:12:37.197Z,25.64
2017-07-11T09:15:06.018Z,26.12
2017-07-11T09:17:34.374Z,26.93
2017-07-11T09:20:02.743Z,27.33
2017-07-11T09:22:31.455Z,27.48
2017-07-11T09:24:59.793Z,26.94
2017-07-11T09:27:28.195Z,26.47
2017-07-11T09:29:57.086Z,26.82
2017-07-11T09:32:25.432Z,26.68
2017-07-11T09:34:53.789Z,27.29
2017-07-11T09:37:22.571Z,27.81
2017-07-11T09:39:50.921Z,28.47
2017-07-11T09:42:20.008Z,28.36
2017-07-11T09:44:48.831Z,28.35
2017-07-11T09:47:17.188Z,27.79
2017-07-11T09:49:46.305Z,26.83
2017-07-11T09:52:15.504Z,26.06
2017-07-11T09:54:43.875Z,25.99
2017-07-11T09:57:12.236Z,26.17
2017-07-11T09:59:41.015Z,26.27
2017-07-11T10:02:09.352Z,27.05
2017-07-11T10:04:37.716Z,26.77
2017-07-11T10:07:06.583Z,26.47
2017-07-11T10:09:34.923Z,26.75
2017-07-11T10:12:03.270Z,27.01
2017-07-11T10:14:32.257Z,26.62
2017-07-11T10:17:00.604Z,27.19
2017-07-11T10:19:29.715Z,27.74
2017-07-11T10:21:58.377Z,28.56
2017-07-11T10:24:26.720Z,27.83
2017-07-11T10:26:55.069Z,27.44
2017-07-11T10:29:23.712Z,27.66
2017-07-11T10:31:52.064Z,27.20
2017-07-11T10:34:20.409Z,27.15
2017-07-11T10:36:49.360Z,27.13
2017-07-11T10:39:17.708Z,28.05
2017-07-11T10:41:46.049Z,28.46
2017-07-11T10:44:14.683Z,27.82
2017-07-11T10:46:43.039Z,27.11
2017-07-11T10:49:11.407Z,27.58
2017-07-11T10:51:40.053Z,27.62
2017-07-11T10:54:08.402Z,28.04
2017-07-11T10:56:36.749Z,27.76
2017-07-11T10:59:05.942Z,28.13
2017-07-11T11:01:34.292Z,28.41
2017-07-11T11:04:02.645Z,27.82
2017-07-11T11:06:31.528Z,28.43
2017-07-11T11:08:59.872Z,28.16
2017-07-11T11:11:28.251Z,27.74
2017-07-11T11:13:56.897Z,27.51
2017-07-11T11:16:25.248Z,28.37
2017-07-11T11:18:53.602Z,28.71
2017-07-11T11:21:22.699Z,27.93
2017-07-11T11:23:51.029Z,27.67
2017-07-11T11:26:19.382Z,27.32
2017-07-11T11:28:48.038Z,27.11
2017-07-11T11:31:16.401Z,27.34
2017-07-11T11:33:44.738Z,27.42
2017-07-11T11:36:13.400Z,27.33
2017-07-11T11:38:41.808Z,27.44
2017-07-11T11:41:10.167Z,27.73
2017-07-11T11:43:39.043Z,26.86
2017-07-11T11:46:07.390Z,27.30
2017-07-11T11:48:35.754Z,27.42
2017-07-11T11:51:04.699Z,27.55
2017-07-11T11:53:33.066Z,27.44
2017-07-11T11:56:01.440Z,26.83
2017-07-11T11:58:30.092Z,27.05
2017-07-11T12:00:58.444Z,26.88
2017-07-11T12:03:26.778Z,26.22
2017-07-11T12:05:55.844Z,26.31
2017-07-11T12:08:24.979Z,26.75
2017-07-11T12:10:53.318Z,26.65
2017-07-11T12:13:21.992Z,27.12
2017-07-11T12:15:50.339Z,26.97
2017-07-11T12:18:18.686Z,27.11
2017-07-11T12:20:47.326Z,27.36
2017-07-11T12:23:15.661Z,27.61
2017-07-11T12:25:44.007Z,28.31
2017-07-11T12:28:13.273Z,28.10
2017-07-11T12:30:41.641Z,27.73
2017-07-11T12:33:09.998Z,27.21
2017-07-11T12:35:38.779Z,26.61
2017-07-11T12:38:07.139Z,27.18
2017-07-11T12:40:36.282Z,27.87
2017-07-11T12:43:05.238Z,28.32
2017-07-11T12:45:33.564Z,28.74
2017-07-11T12:48:01.910Z,28.97
2017-07-11T12:50:31.226Z,28.75
2017-07-11T12:52:59.563Z,28.33
2017-07-11T12:55:27.960Z,28.94
2017-07-11T12:57:56.558Z,29.30
2017-07-11T13:00:24.882Z,29.18
2017-07-11T13:02:53.243Z,28.85
2017-07-11T13:05:22.040Z,28.63
2017-07-11T13:07:50.381Z,28.30
2017-07-11T13:10:18.741Z,27.94
2017-07-11T13:12:47.727Z,28.10
2017-07-11T13:15:16.834Z,28.36
2017-07-11T13:17:45.175Z,28.83
2017-07-11T13:20:14.106Z,27.87
2017-07-11T13:22:42.470Z,28.18
2017-07-11T13:25:11.643Z,28.12
2017-07-11T13:27:40.310Z,28.39
2017-07-11T13:30:08.649Z,29.10
2017-07-11T13:32:37.014Z,29.31
2017-07-11T13:35:06.092Z,28.67
2017-07-11T13:37:35.191Z,28.22
2017-07-11T13:40:03.532Z,27.86
2017-07-11T13:42:32.301Z,26.98
2017-07-11T13:45:00.656Z,27.25
2017-07-11T13:47:29.817Z,27.65
2017-07-11T13:49:58.497Z,27.76
2017-07-11T13:52:26.856Z,27.89
2017-07-11T13:54:55.212Z,27.21
2017-07-11T13:57:24.195Z,26.90
2017-07-11T13:59:52.572Z,26.91
2017-07-11T14:02:21.728Z,26.52
2017-07-11T14:04:50.473Z,27.25
2017-07-11T14:07:18.812Z,27.46
2017-07-11T14:09:47.167Z,27.38
2017-07-11T14:12:15.824Z,27.32
2017-07-11T14:14:44.159Z,27.37
2017-07-11T14:17:12.493Z,27.51
2017-07-11T14:19:41.571Z,27.95
2017-07-11T14:22:09.907Z,28.33
2017-07-11T14:24:39.053Z,28.22
2017-07-11T14:27:07.818Z,27.65
2017-07-11T14:29:36.170Z,27.89
2017-07-11T14:32:05.302Z,27.96
2017-07-11T14:34:33.975Z,27.45
2017-07-11T14:37:03.093Z,27.72
2017-07-11T14:39:31.434Z,27.58
2017-07-11T14:42:00.352Z,27.41
2017-07-11T14:44:28.684Z,27.72
2017-07-11T14:46:57.026Z,26.99
2017-07-11T14:49:25.999Z,27.42
2017-07-11T14:51:54.343Z,27.76
2017-07-11T14:54:22.734Z,27.62
2017-07-11T14:56:51.406Z,27.78
2017-07-11T14:59:19.770Z,27.51
2017-07-11T15:01:48.119Z,27.57
2017-07-11T15:04:16.846Z,27.31
2017-07-11T15:06:45.215Z,26.88
2017-07-11T15:09:13.564Z,27.02
2017-07-11T15:11:42.228Z,26.88
2017-07-11T15:14:10.595Z,26.62
2017-07-11T15:16:38.935Z,26.36
2017-07-11T15:19:07.572Z,26.58
2017-07-11T15:21:35.914Z,26.46
2017-07-11T15:24:04.279Z,26.48
2017-07-11T15:26:33.215Z,26.27
2017-07-11T15:29:01.538Z,26.34
2017-07-11T15:31:29.882Z,26.20
2017-07-11T15:33:58.549Z,26.45
2017-07-11T15:36:27.673Z,26.50
2017-07-11T15:38:56.000Z,26.64
2017-07-11T15:41:24.656Z,26.55
2017-07-11T15:43:53.014Z,26.78
2017-07-11T15:46:21.363Z,26.51
2017-07-11T15:48:50.370Z,26.48
2017-07-11T15:51:18.707Z,26.00
2017-07-11T15:53:47.048Z,26.22
2017-07-11T15:56:16.269Z,26.30
2017-07-11T15:58:44.612Z,26.21
2017-07-11T16:01:13.715Z,26.35
2017-07-11T16:03:42.467Z,26.67
2017-07-11T16:06:10.785Z,27.02
2017-07-11T16:08:39.137Z,27.31
2017-07-11T16:11:08.678Z,27.35
2017-07-11T16:13:37.056Z,27.25
2017-07-11T16:16:05.404Z,27.04
2017-07-11T16:18:34.850Z,26.98
2017-07-11T16:21:03.203Z,26.99
2017-07-11T16:23:32.369Z,26.95
2017-07-11T16:26:01.089Z,26.64
2017-07-11T16:28:29.435Z,26.74
2017-07-11T16:30:57.776Z,26.81
2017-07-11T16:33:26.706Z,26.49
2017-07-11T16:35:55.066Z,26.26
2017-07-11T16:38:23.469Z,25.99
2017-07-11T16:40:52.418Z,25.57
2017-07-11T16:43:20.785Z,24.82
2017-07-11T16:45:49.185Z,24.85
2017-07-11T16:48:18.030Z,24.72
2017-07-11T16:50:46.392Z,24.32
2017-07-11T16:53:14.737Z,24.07
2017-07-11T16:55:43.937Z,24.12
2017-07-11T16:58:12.311Z,23.76
2017-07-11T17:00:40.642Z,23.52
2017-07-11T17:03:09.334Z,23.20
2017-07-11T17:05:38.042Z,23.02
2017-07-11T17:08:06.400Z,22.66
2017-07-11T17:10:35.829Z,23.07
2017-07-11T17:13:04.206Z,23.15
2017-07-11T17:15:32.600Z,23.23
2017-07-11T17:18:02.501Z,23.11
2017-07-11T17:20:30.857Z,22.57
2017-07-11T17:22:59.199Z,22.45
2017-07-11T17:25:28.158Z,22.41
2017-07-11T17:27:56.537Z,22.68
2017-07-11T17:30:24.908Z,23.03
2017-07-11T17:32:53.618Z,22.98
2017-07-11T17:35:21.976Z,22.75
2017-07-11T17:37:50.314Z,22.93
2017-07-11T17:40:19.226Z,23.01
2017-07-11T17:42:47.665Z,22.86
2017-07-11T17:45:16.019Z,23.08
2017-07-11T17:47:44.656Z,23.34
2017-07-11T17:50:13.046Z,23.10
2017-07-11T17:52:42.189Z,23.11
2017-07-11T17:55:10.952Z,23.14
2017-07-11T17:57:39.296Z,23.44
2017-07-11T18:00:08.409Z,23.42
2017-07-11T18:02:37.405Z,23.31
2017-07-11T18:05:05.776Z,23.13
2017-07-11T18:07:35.157Z,23.16
2017-07-11T18:10:03.894Z,23.05
2017-07-11T18:12:32.218Z,23.12
2017-07-11T18:15:00.586Z,23.20
2017-07-11T18:17:29.535Z,23.31
2017-07-11T18:19:57.896Z,23.29
2017-07-11T18:22:27.015Z,23.20
2017-07-11T18:24:56.003Z,23.18
2017-07-11T18:27:24.355Z,23.24
2017-07-11T18:29:53.496Z,23.35
2017-07-11T18:32:22.283Z,23.17
2017-07-11T18:34:50.619Z,23.15
2017-07-11T18:37:19.742Z,22.61
2017-07-11T18:39:48.709Z,22.52
2017-07-11T18:42:17.109Z,22.49
2017-07-11T18:44:45.486Z,22.28
2017-07-11T18:47:14.410Z,22.51
2017-07-11T18:49:42.763Z,22.64
2017-07-11T18:52:11.097Z,22.72
2017-07-11T18:54:39.834Z,22.64
2017-07-11T18:57:08.196Z,22.67
2017-07-11T18:59:36.555Z,22.71
2017-07-11T19:02:05.284Z,22.71
2017-07-11T19:04:33.600Z,22.86
2017-07-11T19:07:01.966Z,23.00
2017-07-11T19:09:30.834Z,22.90
2017-07-11T19:11:59.184Z,23.08
2017-07-11T19:14:27.519Z,23.08
2017-07-11T19:16:56.370Z,23.10
2017-07-11T19:19:24.726Z,23.21
2017-07-11T19:21:53.864Z,23.22
2017-07-11T19:24:22.545Z,23.19
2017-07-11T19:26:50.905Z,23.22
2017-07-11T19:29:19.259Z,23.17
2017-07-11T19:31:48.073Z,23.25
2017-07-11T19:34:16.449Z,23.26
2017-07-11T19:36:44.816Z,23.04
2017-07-11T19:39:13.737Z,23.07
2017-07-11T19:41:42.085Z,23.01
2017-07-11T19:44:11.205Z,23.00
2017-07-11T19:46:39.979Z,22.98
2017-07-11T19:49:08.310Z,23.06
2017-07-11T19:51:36.650Z,23.05
2017-07-11T19:54:05.723Z,23.07
2017-07-11T19:56:34.831Z,23.01
2017-07-11T19:59:03.949Z,22.96
2017-07-11T20:01:32.732Z,22.82
2017-07-11T20:04:01.101Z,22.87
2017-07-11T20:06:29.487Z,22.68
2017-07-11T20:08:58.153Z,22.22
2017-07-11T20:11:26.483Z,22.35
2017-07-11T20:13:54.851Z,22.26
2017-07-11T20:16:23.808Z,22.27
2017-07-11T20:18:52.131Z,22.21
2017-07-11T20:21:20.490Z,22.24
2017-07-11T20:23:49.273Z,22.21
2017-07-11T20:26:17.653Z,22.11
2017-07-11T20:28:46.003Z,22.00
2017-07-11T20:31:14.924Z,21.97
2017-07-11T20:33:43.310Z,21.95
2017-07-11T20:36:11.664Z,21.99
2017-07-11T20:38:40.523Z,21.56
2017-07-11T20:41:08.866Z,21.41
2017-07-11T20:43:37.232Z,21.45
2017-07-11T20:46:05.853Z,21.55
2017-07-11T20:48:34.227Z,21.51
2017-07-11T20:51:02.602Z,21.47
2017-07-11T20:53:31.458Z,21.54
2017-07-11T20:55:59.829Z,21.21
2017-07-11T20:58:28.179Z,21.16
2017-07-11T21:00:57.092Z,21.23
2017-07-11T21:03:25.461Z,20.82
2017-07-11T21:05:53.830Z,20.93
2017-07-11T21:08:22.499Z,20.85
2017-07-11T21:10:50.856Z,20.69
2017-07-11T21:13:19.255Z,20.82
2017-07-11T21:15:48.010Z,21.01
2017-07-11T21:18:16.360Z,21.04
2017-07-11T21:20:44.782Z,20.92
2017-07-11T21:23:13.669Z,20.75
2017-07-11T21:25:42.035Z,20.86
2017-07-11T21:28:10.403Z,20.89
2017-07-11T21:30:39.259Z,20.76
2017-07-11T21:33:07.612Z,20.68
2017-07-11T21:35:35.967Z,20.42
2017-07-11T21:38:04.651Z,20.45
2017-07-11T21:40:32.996Z,20.32
2017-07-11T21:43:01.365Z,20.41
2017-07-11T21:45:30.289Z,20.35
2017-07-11T21:47:58.655Z,20.46
2017-07-11T21:50:27.013Z,20.45
2017-07-11T21:52:55.676Z,20.39
2017-07-11T21:55:24.005Z,20.30
2017-07-11T21:57:53.102Z,20.21
2017-07-11T22:00:22.697Z,20.20
2017-07-11T22:02:51.029Z,20.24
2017-07-11T22:05:19.368Z,20.17
2017-07-11T22:07:48.603Z,20.15
2017-07-11T22:10:16.975Z,20.00
2017-07-11T22:12:45.436Z,20.01
2017-07-11T22:15:14.119Z,19.94
2017-07-11T22:17:42.479Z,19.97
2017-07-11T22:20:10.853Z,19.82
2017-07-11T22:22:39.597Z,19.72
2017-07-11T22:25:07.922Z,19.78
2017-07-11T22:27:36.267Z,19.82
2017-07-11T22:30:05.092Z,19.72
2017-07-11T22:32:33.426Z,19.61
2017-07-11T22:35:01.797Z,19.71
2017-07-11T22:37:30.563Z,19.80
2017-07-11T22:39:58.919Z,19.82
2017-07-11T22:42:27.284Z,19.91
2017-07-11T22:44:55.961Z,19.77
2017-07-11T22:47:24.331Z,19.55
2017-07-11T22:49:52.687Z,19.39
2017-07-11T22:52:21.544Z,19.55
2017-07-11T22:54:50.652Z,19.50
2017-07-11T22:57:19.028Z,19.33
2017-07-11T22:59:47.715Z,18.94
2017-07-11T23:02:16.058Z,19.10
2017-07-11T23:04:44.406Z,19.29
2017-07-11T23:07:13.026Z,19.38
2017-07-11T23:09:42.163Z,18.99
2017-07-11T23:12:10.518Z,19.16
2017-07-11T23:14:39.628Z,19.17
2017-07-11T23:17:08.001Z,19.12
2017-07-11T23:19:37.114Z,19.13
2017-07-11T23:22:05.977Z,19.02
2017-07-11T23:24:34.338Z,18.79
2017-07-11T23:27:02.681Z,18.77
2017-07-11T23:29:31.554Z,18.69
2017-07-11T23:31:59.908Z,18.68
2017-07-11T23:34:29.021Z,18.65
2017-07-11T23:36:58.422Z,18.59
2017-07-11T23:39:26.802Z,18.39
2017-07-11T23:41:55.180Z,18.37
2017-07-11T23:44:23.813Z,18.48
2017-07-11T23:46:52.170Z,18.31
2017-07-11T23:49:20.515Z,18.15
2017-07-11T23:51:49.235Z,18.05
2017-07-11T23:54:17.575Z,18.18
2017-07-11T23:56:45.899Z,18.25
2017-07-11T23:59:14.925Z,18.27
